Aviation Digital Data Service (ADDS)

Output produced by METARs form (1204 UTC 16 July 2019)
found at http://www.aviationweather.gov/metar/data/
 
KWJF 161126Z 1612/1712 27014KT P6SM SKC 
     FM161800 26018G26KT P6SM SKC 
     FM162100 25022G32KT P6SM SKC 
     FM170300 25016KT P6SM SKC
       
KWMC 161120Z 1612/1712 VRB06KT P6SM SCT200 
     FM161900 28010G18KT P6SM SCT100 BKN200 
     FM170200 32007KT P6SM FEW110 
     FM170600 03006KT P6SM SKC
       
TAF KWRB 160500Z 1605/1711 VRB06KT 9999 FEW140 SCT220 QNH3006INS 
     BECMG 1614/1615 30009KT 9999 FEW060 SCT220 QNH3002INS 
     BECMG 1701/1702 VRB06KT 9999 SCT200 QNH3004INS TX36/1619Z TN23/1608Z
       
TAF KWRI 161000Z 1610/1716 VRB05KT 9999 FEW250 QNH3002INS 
     BECMG 1614/1615 24008KT 9999 FEW150 FEW250 QNH2998INS 
     BECMG 1704/1705 21005KT 9999 SCT050 BKN130 BKN250 QNH2996INS TX33/1620Z
TN19/1610Z
       
KWRL 161136Z 1612/1712 VRB05KT P6SM SKC 
     FM161700 36007KT P6SM BKN250 
     FM162100 02007KT P6SM VCTS SCT080CB BKN150 
     FM170100 VRB08G15KT P6SM VCSH SCT120 BKN200 
     FM170300 33008KT P6SM FEW100 SCT200 
     FM170700 32008KT P6SM VCSH BKN100 
     FM171100 VRB04KT P6SM BKN200